Time;durP1;ratioP1;P1;durP2;ratioP2;P2;SDS_P1;SDS_P2;PMS_P1;PMS_P2;Temp;Humidity;BMP_temperature;BMP_pressure;BME280_temperature;BME280_humidity;BME280_pressure;Samples;Min_cycle;Max_cycle;Signal;HPM_P1;HPM_P2
2024/03/16 00:00:14;;;;;;;11.13;2.92;;;12.60;99.90;;;;;;5023763;28;20036;-90
2024/03/16 00:02:40;;;;;;;11.40;3.20;;;12.60;99.90;;;;;;5038279;28;20026;-91
2024/03/16 00:05:06;;;;;;;12.25;3.20;;;12.50;99.90;;;;;;5006845;28;20033;-91
2024/03/16 00:07:32;;;;;;;9.80;2.83;;;12.60;99.90;;;;;;5056655;28;20029;-90
2024/03/16 00:09:57;;;;;;;10.68;3.08;;;12.50;99.90;;;;;;5057084;28;20033;-90
2024/03/16 00:12:23;;;;;;;11.70;3.20;;;12.50;99.90;;;;;;5056756;28;20056;-90
2024/03/16 00:14:49;;;;;;;12.55;3.50;;;12.50;99.90;;;;;;5039414;28;20045;-90
2024/03/16 00:17:17;;;;;;;14.00;3.88;;;12.50;99.90;;;;;;5006406;28;20052;-91
2024/03/16 00:19:45;;;;;;;11.90;3.63;;;12.60;99.90;;;;;;5023883;28;20480;-90
2024/03/16 00:22:11;;;;;;;12.65;3.63;;;12.50;99.90;;;;;;5056786;28;20029;-91
2024/03/16 00:24:37;;;;;;;11.35;3.20;;;12.50;99.90;;;;;;5006583;28;20491;-91
2024/03/16 00:27:02;;;;;;;16.23;3.85;;;12.50;99.90;;;;;;5038695;28;20082;-91
2024/03/16 00:29:28;;;;;;;14.13;3.67;;;12.50;99.90;;;;;;5038049;28;20047;-90
2024/03/16 00:31:54;;;;;;;13.77;4.20;;;12.50;99.90;;;;;;5036970;28;20120;-91
2024/03/16 00:34:20;;;;;;;18.23;4.18;;;12.40;99.90;;;;;;5018274;28;20037;-91
2024/03/16 00:36:45;;;;;;;12.65;3.45;;;12.40;99.90;;;;;;5034135;28;20033;-91
2024/03/16 00:39:23;;;;;;;11.32;3.55;;;12.40;99.90;;;;;;5039484;28;20033;-91
2024/03/16 00:41:49;;;;;;;11.50;3.70;;;12.40;99.90;;;;;;5025260;28;20036;-90
2024/03/16 00:44:15;;;;;;;13.88;4.35;;;12.40;99.90;;;;;;5021331;28;20060;-91
2024/03/16 00:46:41;;;;;;;13.80;3.92;;;12.40;99.90;;;;;;5021298;28;20079;-90
2024/03/16 00:49:06;;;;;;;13.57;3.75;;;12.40;99.90;;;;;;5032897;28;20445;-88
2024/03/16 00:51:33;;;;;;;13.02;4.18;;;12.30;99.90;;;;;;5037634;28;20508;-90
2024/03/16 00:53:58;;;;;;;11.57;3.65;;;12.30;99.90;;;;;;5020950;28;20447;-90
2024/03/16 00:56:24;;;;;;;10.20;3.63;;;12.30;99.90;;;;;;5037314;28;20033;-90
2024/03/16 00:58:50;;;;;;;13.65;4.20;;;12.30;99.90;;;;;;5037681;28;20032;-88
2024/03/16 01:01:17;;;;;;;13.80;4.20;;;12.30;99.90;;;;;;5021113;28;20024;-89
2024/03/16 01:03:42;;;;;;;14.10;4.20;;;12.30;99.90;;;;;;5020696;28;20064;-90
2024/03/16 01:06:09;;;;;;;11.27;3.90;;;12.30;99.90;;;;;;5037705;28;20075;-86
2024/03/16 01:08:35;;;;;;;14.52;4.35;;;12.20;99.90;;;;;;5021048;28;20025;-90
2024/03/16 01:11:00;;;;;;;11.27;4.43;;;12.20;99.90;;;;;;5054440;28;20044;-91
2024/03/16 01:13:27;;;;;;;13.63;4.47;;;12.30;99.90;;;;;;5041861;28;20037;-92
2024/03/16 01:15:52;;;;;;;13.73;4.53;;;12.30;99.90;;;;;;5035056;28;20041;-90
2024/03/16 01:18:18;;;;;;;14.85;4.95;;;12.30;99.90;;;;;;5031004;28;20096;-90
2024/03/16 01:20:45;;;;;;;12.93;5.32;;;12.30;99.90;;;;;;5038840;28;20013;-89
2024/03/16 01:23:13;;;;;;;15.98;5.65;;;12.40;99.90;;;;;;5057457;28;20038;-85
2024/03/16 01:25:39;;;;;;;12.85;5.50;;;12.30;99.90;;;;;;5040355;28;20026;-88
2024/03/16 01:28:04;;;;;;;14.00;5.80;;;12.30;99.90;;;;;;5012412;28;20389;-90
2024/03/16 01:30:30;;;;;;;16.17;5.65;;;12.30;99.90;;;;;;5034996;28;20017;-92
2024/03/16 01:32:56;;;;;;;12.23;5.22;;;12.20;99.90;;;;;;5038663;28;20485;-89
2024/03/16 01:35:22;;;;;;;11.52;5.25;;;12.20;99.90;;;;;;5021214;28;20034;-89
2024/03/16 01:37:48;;;;;;;12.13;5.88;;;12.20;99.90;;;;;;5034465;28;20021;-89
2024/03/16 01:40:13;;;;;;;12.43;5.40;;;12.20;99.90;;;;;;5053384;28;20120;-90
2024/03/16 01:42:39;;;;;;;15.05;5.78;;;12.20;99.90;;;;;;5053944;28;20039;-89
2024/03/16 01:45:12;;;;;;;17.27;5.78;;;12.30;99.90;;;;;;5053045;28;20136;-89
2024/03/16 01:47:38;;;;;;;14.10;6.95;;;12.30;99.90;;;;;;5054530;28;20032;-88
2024/03/16 01:50:04;;;;;;;13.75;5.60;;;12.20;99.90;;;;;;5020283;28;20033;-88
2024/03/16 01:52:30;;;;;;;14.38;6.00;;;12.20;99.90;;;;;;5036195;28;20076;-89
2024/03/16 01:54:56;;;;;;;18.20;6.05;;;12.20;99.90;;;;;;5036969;28;20060;-90
2024/03/16 01:57:21;;;;;;;10.48;4.75;;;12.20;99.90;;;;;;5036523;28;20048;-86
2024/03/16 01:59:50;;;;;;;12.73;6.00;;;12.20;99.90;;;;;;5019966;28;20033;-90
2024/03/16 02:02:36;;;;;;;12.93;5.90;;;12.20;99.90;;;;;;5020564;28;20139;-90
2024/03/16 02:05:06;;;;;;;15.00;5.45;;;12.20;99.90;;;;;;5036286;28;20067;-89
2024/03/16 02:07:32;;;;;;;14.55;5.30;;;12.10;99.90;;;;;;5054133;28;20017;-89
2024/03/16 02:10:20;;;;;;;15.07;6.47;;;12.10;99.90;;;;;;5020204;28;20048;-90
2024/03/16 02:12:45;;;;;;;16.50;6.22;;;12.10;99.90;;;;;;5052968;28;20040;-88
2024/03/16 02:15:11;;;;;;;12.95;5.57;;;12.00;99.90;;;;;;5046308;28;20037;-89
2024/03/16 02:17:37;;;;;;;12.90;6.00;;;12.00;99.90;;;;;;5020205;28;20116;-89
2024/03/16 02:20:04;;;;;;;14.50;5.57;;;12.00;99.90;;;;;;5033089;28;20030;-88
2024/03/16 02:22:30;;;;;;;15.57;5.47;;;12.00;99.90;;;;;;5016614;28;20050;-90
2024/03/16 02:24:56;;;;;;;16.33;6.47;;;12.00;99.90;;;;;;5053134;28;20021;-89
2024/03/16 02:27:22;;;;;;;14.85;6.18;;;12.00;99.90;;;;;;5011819;28;20030;-88
2024/03/16 02:29:48;;;;;;;16.02;5.93;;;12.00;99.90;;;;;;5033872;28;20021;-89
2024/03/16 02:32:16;;;;;;;15.70;7.30;;;12.00;99.90;;;;;;5037723;28;20029;-89
2024/03/16 02:34:43;;;;;;;15.70;7.25;;;12.00;99.90;;;;;;5036373;28;20040;-89
2024/03/16 02:37:10;;;;;;;18.60;6.85;;;12.00;99.90;;;;;;5030513;28;20021;-90
2024/03/16 02:39:35;;;;;;;15.73;7.45;;;12.00;99.90;;;;;;5022543;28;20025;-90
2024/03/16 02:42:02;;;;;;;15.05;7.03;;;12.00;99.90;;;;;;5016429;28;20025;-88
2024/03/16 02:44:31;;;;;;;17.63;8.10;;;12.00;99.90;;;;;;5056718;28;20408;-88
2024/03/16 02:46:58;;;;;;;16.95;7.57;;;12.00;99.90;;;;;;5022731;28;20029;-88
2024/03/16 02:49:25;;;;;;;20.48;8.68;;;12.00;99.90;;;;;;5037705;28;20029;-88
2024/03/16 02:51:51;;;;;;;14.18;8.02;;;12.00;99.90;;;;;;5051697;28;20028;-89
2024/03/16 02:54:18;;;;;;;12.55;7.05;;;12.00;99.90;;;;;;5047750;28;20492;-89
2024/03/16 02:56:44;;;;;;;17.08;7.72;;;12.00;99.90;;;;;;5024473;28;20037;-87
2024/03/16 02:59:10;;;;;;;22.42;9.52;;;12.10;99.90;;;;;;5054665;28;20024;-87
2024/03/16 03:01:37;;;;;;;18.98;8.45;;;12.10;99.90;;;;;;5060099;28;20034;-86
2024/03/16 03:04:05;;;;;;;15.77;7.75;;;12.10;99.90;;;;;;5065866;28;20056;-87
2024/03/16 03:06:30;;;;;;;14.27;7.78;;;12.00;99.90;;;;;;5061056;28;20053;-91
2024/03/16 03:08:56;;;;;;;15.55;6.68;;;11.90;99.90;;;;;;5041012;28;20461;-89
2024/03/16 03:11:22;;;;;;;19.20;6.32;;;11.90;99.90;;;;;;5056410;28;20060;-84
2024/03/16 03:13:47;;;;;;;10.73;5.20;;;11.70;99.90;;;;;;5039342;28;20029;-89
2024/03/16 03:16:19;;;;;;;11.55;5.15;;;11.60;99.90;;;;;;5039553;28;20079;-89
2024/03/16 03:18:46;;;;;;;8.13;3.67;;;11.60;99.90;;;;;;5025394;28;20017;-89
2024/03/16 03:21:12;;;;;;;8.95;3.40;;;11.50;99.90;;;;;;5033832;28;20495;-89
2024/03/16 03:23:38;;;;;;;9.18;3.40;;;11.50;99.90;;;;;;5039064;28;20021;-89
2024/03/16 03:26:04;;;;;;;12.23;3.45;;;11.40;99.90;;;;;;5022539;28;20033;-88
2024/03/16 03:28:29;;;;;;;7.18;2.80;;;11.30;99.90;;;;;;5056802;28;20490;-89
2024/03/16 03:30:55;;;;;;;6.85;2.97;;;11.20;99.90;;;;;;5023355;28;20029;-90
2024/03/16 03:33:21;;;;;;;7.40;3.13;;;11.20;99.90;;;;;;5056543;28;20080;-91
2024/03/16 03:35:46;;;;;;;6.13;2.45;;;11.20;99.90;;;;;;5038781;28;20033;-90
2024/03/16 03:38:12;;;;;;;5.95;2.60;;;11.20;99.90;;;;;;5055466;28;20107;-89
2024/03/16 03:40:37;;;;;;;6.57;2.33;;;11.20;99.90;;;;;;5005790;28;20457;-90
2024/03/16 03:43:05;;;;;;;5.93;1.90;;;11.10;99.90;;;;;;5022629;28;20074;-89
2024/03/16 03:48:43;;;;;;;3.50;1.52;;;11.10;99.90;;;;;;5040805;28;20044;-89
2024/03/16 03:51:00;;;;;;;4.97;1.75;;;11.00;99.90;;;;;;5052280;28;20461;-89
2024/03/16 03:53:27;;;;;;;3.15;1.48;;;11.00;99.90;;;;;;5005508;28;20102;-89
2024/03/16 03:55:53;;;;;;;2.67;1.40;;;10.90;99.90;;;;;;5038762;28;20376;-87
2024/03/16 03:58:20;;;;;;;3.65;1.27;;;11.00;99.90;;;;;;5038745;28;20040;-89
2024/03/16 04:00:47;;;;;;;4.03;1.73;;;11.00;99.90;;;;;;5022260;28;20079;-89
2024/03/16 04:03:13;;;;;;;2.45;1.38;;;11.00;99.90;;;;;;5022537;28;20037;-89
2024/03/16 04:05:39;;;;;;;4.05;2.30;;;10.90;99.90;;;;;;5021513;28;20040;-89
2024/03/16 04:08:06;;;;;;;4.60;2.20;;;10.90;99.90;;;;;;5038585;28;20027;-88
2024/03/16 04:10:35;;;;;;;3.38;1.90;;;10.90;99.90;;;;;;5054671;28;20033;-90
2024/03/16 04:13:01;;;;;;;5.13;2.80;;;10.90;99.90;;;;;;5055571;28;20043;-88
2024/03/16 04:15:30;;;;;;;5.18;3.15;;;10.90;99.90;;;;;;5021984;28;20033;-89
2024/03/16 04:17:56;;;;;;;5.50;3.78;;;10.90;99.90;;;;;;5038007;28;20453;-88
2024/03/16 04:20:22;;;;;;;4.75;3.60;;;10.90;99.90;;;;;;5038661;28;20024;-88
2024/03/16 04:22:48;;;;;;;5.07;3.80;;;10.90;99.90;;;;;;5022623;28;20024;-89
2024/03/16 04:25:14;;;;;;;5.60;3.65;;;10.90;99.90;;;;;;5023769;28;20029;-88
2024/03/16 04:27:44;;;;;;;4.10;2.65;;;10.90;99.90;;;;;;5018456;28;20026;-88
2024/03/16 04:30:13;;;;;;;2.70;2.38;;;10.80;99.90;;;;;;5045936;28;20068;-88
2024/03/16 04:32:39;;;;;;;2.28;1.98;;;10.80;99.90;;;;;;5061493;28;20025;-86
2024/03/16 04:35:05;;;;;;;2.15;1.67;;;10.70;99.90;;;;;;5078372;28;20036;-88
2024/03/16 04:37:33;;;;;;;3.05;1.55;;;10.70;99.90;;;;;;5044437;28;20055;-89
2024/03/16 04:39:59;;;;;;;3.00;1.77;;;10.60;99.90;;;;;;5052232;28;20492;-88
2024/03/16 04:42:24;;;;;;;2.00;1.50;;;10.50;99.90;;;;;;5038207;28;20124;-89
2024/03/16 04:44:50;;;;;;;3.20;1.52;;;10.50;99.90;;;;;;5038477;28;20035;-89
2024/03/16 04:47:16;;;;;;;3.05;1.52;;;10.40;99.90;;;;;;5041242;28;20030;-88
2024/03/16 04:49:42;;;;;;;2.78;1.40;;;10.40;99.90;;;;;;5038077;28;20059;-88
2024/03/16 04:52:08;;;;;;;2.03;1.45;;;10.40;99.90;;;;;;5036856;28;20397;-88
2024/03/16 04:54:34;;;;;;;4.07;1.38;;;10.40;99.90;;;;;;5037068;28;20035;-88
2024/03/16 04:56:59;;;;;;;3.75;1.25;;;10.40;99.90;;;;;;5039187;28;20037;-88
2024/03/16 04:59:25;;;;;;;3.65;1.02;;;10.40;99.90;;;;;;5037259;28;20422;-88
2024/03/16 05:01:51;;;;;;;4.18;1.23;;;10.40;99.90;;;;;;4999622;28;20123;-88
2024/03/16 05:04:17;;;;;;;2.25;1.15;;;10.30;99.90;;;;;;5020928;28;20125;-88
2024/03/16 05:06:43;;;;;;;3.72;1.23;;;10.40;99.90;;;;;;5021142;28;20033;-89
2024/03/16 05:09:09;;;;;;;3.80;1.17;;;10.40;99.90;;;;;;5054721;28;20029;-88
2024/03/16 05:11:38;;;;;;;3.20;1.15;;;10.50;99.90;;;;;;5037128;28;20056;-88
2024/03/16 05:14:08;;;;;;;3.67;1.35;;;10.60;99.90;;;;;;5037134;28;20098;-88
2024/03/16 05:16:38;;;;;;;3.95;1.70;;;10.50;99.90;;;;;;5021311;28;20025;-89
2024/03/16 05:19:04;;;;;;;4.47;1.52;;;10.50;99.90;;;;;;5037398;28;20029;-89
2024/03/16 05:21:34;;;;;;;3.72;1.20;;;10.60;99.90;;;;;;5004657;28;20021;-88
2024/03/16 05:24:01;;;;;;;4.03;1.40;;;10.50;99.90;;;;;;5033994;28;20021;-89
2024/03/16 05:26:28;;;;;;;4.20;1.35;;;10.50;99.90;;;;;;5041989;28;20465;-90
2024/03/16 05:28:54;;;;;;;3.92;1.45;;;10.50;99.90;;;;;;5036965;28;20036;-88
2024/03/16 05:31:20;;;;;;;2.22;1.30;;;10.50;99.90;;;;;;5020380;28;20033;-88
2024/03/16 05:33:46;;;;;;;5.25;1.50;;;10.50;99.90;;;;;;5037095;28;20064;-90
2024/03/16 05:36:14;;;;;;;3.00;1.40;;;10.50;99.90;;;;;;5001262;28;20053;-89
2024/03/16 05:38:43;;;;;;;5.22;1.42;;;10.30;99.90;;;;;;5002876;28;20195;-90
2024/03/16 05:41:10;;;;;;;5.00;1.70;;;10.30;99.90;;;;;;5036999;28;20033;-89
2024/03/16 05:43:36;;;;;;;4.07;1.60;;;10.20;99.90;;;;;;5052261;28;20025;-89
2024/03/16 05:46:02;;;;;;;3.95;1.00;;;10.10;99.90;;;;;;5020312;28;20460;-88
2024/03/16 05:48:27;;;;;;;3.50;1.63;;;10.10;99.90;;;;;;5020348;28;20030;-88
2024/03/16 05:50:53;;;;;;;1.83;1.05;;;10.10;99.90;;;;;;5035480;28;20048;-88
2024/03/16 05:53:20;;;;;;;3.78;1.40;;;10.20;99.90;;;;;;5053636;28;20056;-88
2024/03/16 05:55:46;;;;;;;3.95;1.63;;;10.20;99.90;;;;;;5019965;28;20021;-88
2024/03/16 05:58:11;;;;;;;6.38;2.22;;;10.20;99.90;;;;;;5037040;28;20036;-87
2024/03/16 06:00:40;;;;;;;3.55;1.60;;;10.10;99.90;;;;;;5054249;28;20025;-89
2024/03/16 06:03:05;;;;;;;6.53;1.73;;;10.10;99.90;;;;;;5059803;28;20055;-85
2024/03/16 06:05:38;;;;;;;5.00;1.40;;;10.00;99.90;;;;;;5073338;28;20022;-90
2024/03/16 06:08:04;;;;;;;5.55;1.63;;;9.90;99.90;;;;;;5073332;28;20010;-90
2024/03/16 06:10:33;;;;;;;6.32;1.67;;;9.80;99.90;;;;;;5075589;28;20025;-90
2024/03/16 06:13:00;;;;;;;4.85;1.48;;;9.80;99.90;;;;;;5044443;28;20099;-89
2024/03/16 06:15:26;;;;;;;5.40;1.67;;;9.70;99.90;;;;;;5057355;28;20025;-90
2024/03/16 06:17:54;;;;;;;4.13;1.60;;;9.60;99.90;;;;;;5023602;28;20503;-90
2024/03/16 06:20:20;;;;;;;2.45;0.80;;;9.60;99.90;;;;;;5040897;28;20376;-89
2024/03/16 06:22:47;;;;;;;4.60;0.85;;;9.50;99.90;;;;;;5056875;28;20025;-90
2024/03/16 06:25:13;;;;;;;1.75;0.50;;;9.40;99.90;;;;;;5056709;28;20090;-91
2024/03/16 06:27:53;;;;;;;1.40;0.45;;;9.20;99.90;;;;;;5040111;28;20477;-90
2024/03/16 06:30:26;;;;;;;1.65;0.70;;;9.10;99.90;;;;;;5056421;28;20029;-89
2024/03/16 06:33:10;;;;;;;2.92;0.88;;;9.00;99.90;;;;;;5040207;28;20051;-94
2024/03/16 06:35:36;;;;;;;2.55;0.77;;;9.00;99.90;;;;;;5058160;28;20461;-92
2024/03/16 06:38:03;;;;;;;2.55;1.08;;;9.00;99.90;;;;;;5038554;28;20396;-85
2024/03/16 06:40:28;;;;;;;2.58;0.90;;;8.90;99.90;;;;;;5039796;28;20491;-85
2024/03/16 06:42:54;;;;;;;2.63;0.68;;;8.90;99.90;;;;;;5056298;28;20033;-85
2024/03/16 06:45:20;;;;;;;2.58;1.25;;;8.90;99.90;;;;;;5022390;28;20025;-85
2024/03/16 06:47:45;;;;;;;2.58;0.70;;;9.00;99.90;;;;;;5056168;28;20490;-93
2024/03/16 06:50:12;;;;;;;2.95;0.70;;;9.00;99.90;;;;;;5023152;28;20090;-91
2024/03/16 06:52:38;;;;;;;1.38;0.65;;;9.10;99.90;;;;;;5023204;28;20053;-92
2024/03/16 06:55:05;;;;;;;4.55;0.77;;;9.10;99.90;;;;;;5006399;28;20033;-91
2024/03/16 06:57:30;;;;;;;1.65;0.70;;;9.20;99.90;;;;;;5040013;28;20480;-89
2024/03/16 06:59:56;;;;;;;4.95;1.27;;;9.20;99.90;;;;;;5039333;28;20021;-91
2024/03/16 07:02:22;;;;;;;3.25;0.93;;;9.20;99.90;;;;;;5017248;28;20029;-91
2024/03/16 07:04:49;;;;;;;3.25;0.65;;;9.20;99.90;;;;;;5020262;28;20076;-91
2024/03/16 07:07:14;;;;;;;1.88;0.90;;;9.20;99.90;;;;;;5034676;28;20029;-92
2024/03/16 07:09:40;;;;;;;3.58;0.90;;;9.20;99.90;;;;;;5007143;28;20029;-93
2024/03/16 07:12:06;;;;;;;4.38;0.93;;;9.30;99.90;;;;;;5039452;28;20028;-91
2024/03/16 07:14:32;;;;;;;3.70;1.00;;;9.30;99.90;;;;;;5038574;28;20045;-93
2024/03/16 07:17:00;;;;;;;3.25;0.77;;;9.30;99.90;;;;;;5026879;28;20029;-91
2024/03/16 07:19:25;;;;;;;4.30;1.20;;;9.30;99.90;;;;;;5015490;28;20022;-90
2024/03/16 07:21:51;;;;;;;3.72;0.88;;;9.30;99.90;;;;;;5036088;28;20385;-86
2024/03/16 07:24:17;;;;;;;4.80;1.05;;;9.30;99.90;;;;;;5019833;28;20029;-90
2024/03/16 07:26:43;;;;;;;4.32;1.42;;;9.30;99.90;;;;;;5036964;28;20034;-91
2024/03/16 07:29:10;;;;;;;6.18;1.50;;;9.40;99.90;;;;;;5039991;28;20380;-92
2024/03/16 07:31:36;;;;;;;3.10;0.93;;;9.50;99.90;;;;;;5030583;28;20029;-90
2024/03/16 07:34:03;;;;;;;4.55;1.27;;;9.50;99.90;;;;;;5069926;28;20045;-92
2024/03/16 07:36:31;;;;;;;4.85;1.10;;;9.60;99.90;;;;;;5079570;28;20096;-91
2024/03/16 07:39:00;;;;;;;5.13;1.75;;;9.60;99.90;;;;;;5041688;28;20009;-91
2024/03/16 07:41:29;;;;;;;4.25;1.20;;;9.60;99.90;;;;;;5041894;28;20040;-91
2024/03/16 07:44:00;;;;;;;6.88;1.20;;;9.60;99.90;;;;;;5037901;28;20030;-93
2024/03/16 07:46:26;;;;;;;4.40;1.10;;;9.60;99.90;;;;;;4987807;28;20097;-92
2024/03/16 07:48:52;;;;;;;5.25;1.50;;;9.70;99.90;;;;;;5044372;28;20025;-93
2024/03/16 07:51:17;;;;;;;4.05;1.20;;;9.70;99.90;;;;;;5036565;28;20045;-93
2024/03/16 07:53:46;;;;;;;6.20;1.20;;;9.70;99.90;;;;;;5036176;28;20049;-93
2024/03/16 07:56:12;;;;;;;2.45;1.20;;;9.70;99.90;;;;;;5039514;28;20033;-95
2024/03/16 07:58:38;;;;;;;4.50;1.23;;;9.80;99.90;;;;;;5035182;28;20124;-93
2024/03/16 08:01:09;;;;;;;4.47;1.17;;;9.90;99.90;;;;;;5030727;28;20036;-93
2024/03/16 08:03:36;;;;;;;3.00;0.80;;;9.90;99.90;;;;;;5034749;28;20477;-92
2024/03/16 08:06:07;;;;;;;3.25;1.17;;;9.90;99.90;;;;;;5054332;28;20032;-93
2024/03/16 08:08:33;;;;;;;4.10;1.05;;;10.00;99.90;;;;;;5038754;28;20491;-93
2024/03/16 08:10:59;;;;;;;4.80;1.30;;;9.90;99.90;;;;;;5038348;28;20086;-93
2024/03/16 08:13:25;;;;;;;5.18;1.40;;;10.00;99.90;;;;;;5038923;28;20033;-93
2024/03/16 08:15:53;;;;;;;2.85;1.02;;;10.00;99.90;;;;;;5056625;28;20025;-93
2024/03/16 08:18:19;;;;;;;6.43;1.27;;;9.90;99.90;;;;;;5038424;28;20033;-92
2024/03/16 08:20:45;;;;;;;4.07;1.20;;;9.90;99.90;;;;;;5044989;28;20033;-95
2024/03/16 08:23:10;;;;;;;4.28;1.20;;;9.90;99.90;;;;;;5038306;28;20423;-93
2024/03/16 08:25:36;;;;;;;2.92;0.90;;;9.80;99.90;;;;;;5026621;28;20025;-93
2024/03/16 08:28:02;;;;;;;4.10;1.10;;;9.90;99.90;;;;;;5038949;28;20028;-93
2024/03/16 08:30:28;;;;;;;3.72;1.23;;;9.90;99.90;;;;;;5057013;28;20055;-95
2024/03/16 08:32:56;;;;;;;7.10;1.20;;;10.00;99.90;;;;;;5056516;28;20020;-93
2024/03/16 08:35:21;;;;;;;5.55;1.33;;;10.00;99.90;;;;;;5055927;28;20036;-92
2024/03/16 08:37:47;;;;;;;6.32;1.20;;;10.10;99.90;;;;;;5058801;28;20023;-93
2024/03/16 08:40:13;;;;;;;5.57;1.30;;;10.10;99.90;;;;;;5026807;28;20025;-93
2024/03/16 08:42:42;;;;;;;3.42;1.02;;;10.10;99.90;;;;;;5060491;28;20018;-92
2024/03/16 08:45:08;;;;;;;3.88;1.10;;;10.10;99.90;;;;;;5045888;28;20095;-92
2024/03/16 08:47:37;;;;;;;4.82;1.10;;;10.10;99.90;;;;;;5046142;28;20032;-92
2024/03/16 08:50:04;;;;;;;7.68;1.48;;;10.00;99.90;;;;;;5043117;28;20060;-94
2024/03/16 08:52:30;;;;;;;3.75;1.60;;;10.10;99.90;;;;;;5056466;28;20113;-94
2024/03/16 08:54:59;;;;;;;4.65;1.40;;;10.20;99.90;;;;;;5040802;28;20127;-94
2024/03/16 08:57:25;;;;;;;6.80;1.92;;;10.30;99.90;;;;;;5059398;28;20021;-88
2024/03/16 08:59:51;;;;;;;4.10;1.42;;;10.50;99.90;;;;;;5061098;28;20029;-94
2024/03/16 09:02:21;;;;;;;3.63;1.08;;;10.50;99.90;;;;;;5039313;28;20020;-93
2024/03/16 09:04:47;;;;;;;4.65;1.42;;;10.60;99.90;;;;;;5060514;28;20040;-95
2024/03/16 09:07:13;;;;;;;7.05;1.38;;;10.60;99.90;;;;;;5059130;28;20036;-94
2024/03/16 09:09:40;;;;;;;4.93;1.38;;;10.70;99.90;;;;;;5031207;28;20029;-92
2024/03/16 09:12:06;;;;;;;4.18;1.10;;;10.70;99.90;;;;;;5039968;28;20029;-93
2024/03/16 09:14:35;;;;;;;3.88;1.17;;;10.70;99.90;;;;;;5040311;28;20539;-93
2024/03/16 09:17:01;;;;;;;5.78;1.20;;;10.60;99.90;;;;;;5056719;28;20044;-93
2024/03/16 09:19:27;;;;;;;4.53;1.27;;;10.60;99.90;;;;;;5056686;28;20025;-94
2024/03/16 09:21:53;;;;;;;5.25;1.00;;;10.50;99.90;;;;;;5055239;28;20032;-95
2024/03/16 09:24:19;;;;;;;4.47;1.35;;;10.60;99.90;;;;;;5055841;28;20036;-94
2024/03/16 09:26:45;;;;;;;5.32;1.48;;;10.50;99.90;;;;;;5055792;28;20027;-94
2024/03/16 09:29:16;;;;;;;4.00;1.00;;;10.50;99.90;;;;;;5055269;28;20025;-94
2024/03/16 09:31:42;;;;;;;4.05;1.20;;;10.40;99.90;;;;;;5046888;28;20021;-94
2024/03/16 09:34:11;;;;;;;4.70;1.08;;;10.60;99.90;;;;;;5036474;28;20040;-92
2024/03/16 09:36:37;;;;;;;4.97;1.30;;;10.60;99.90;;;;;;5056445;28;20033;-95
2024/03/16 09:39:09;;;;;;;4.45;1.10;;;10.70;99.90;;;;;;5042510;28;20028;-91
2024/03/16 09:41:37;;;;;;;6.05;1.25;;;10.80;99.90;;;;;;5056831;28;20021;-92
2024/03/16 09:44:04;;;;;;;6.65;1.38;;;10.80;99.90;;;;;;5060407;28;20032;-94
2024/03/16 09:46:31;;;;;;;5.30;1.65;;;10.90;99.90;;;;;;5027270;28;20021;-94
2024/03/16 09:48:58;;;;;;;2.67;0.88;;;10.90;99.90;;;;;;5062989;28;20021;-92
2024/03/16 09:51:24;;;;;;;5.88;1.55;;;10.90;99.90;;;;;;5068833;28;20024;-92
2024/03/16 09:54:08;;;;;;;2.83;1.10;;;10.90;99.90;;;;;;5078109;28;20025;-93
2024/03/16 09:56:36;;;;;;;5.28;1.10;;;10.90;99.90;;;;;;5058162;28;20029;-94
2024/03/16 09:59:20;;;;;;;5.43;1.05;;;11.00;99.90;;;;;;5067281;28;20041;-95
2024/03/16 10:01:48;;;;;;;3.72;1.38;;;11.00;99.90;;;;;;5051486;28;20029;-94
2024/03/16 10:04:13;;;;;;;4.68;1.27;;;11.10;99.90;;;;;;5061735;28;20029;-94
2024/03/16 10:06:39;;;;;;;3.65;1.20;;;11.10;99.90;;;;;;5044911;28;20028;-93
2024/03/16 10:09:13;;;;;;;6.03;1.30;;;11.10;99.90;;;;;;5043986;28;20087;-93
2024/03/16 10:11:39;;;;;;;3.00;1.00;;;11.10;99.90;;;;;;5048202;28;20020;-93
2024/03/16 10:14:09;;;;;;;6.47;1.30;;;11.10;99.90;;;;;;5059012;28;20119;-95
2024/03/16 10:16:36;;;;;;;4.30;1.08;;;11.00;99.90;;;;;;5043260;28;20048;-92
2024/03/16 10:19:01;;;;;;;3.55;0.80;;;10.90;99.90;;;;;;5048431;28;20024;-94
2024/03/16 10:21:29;;;;;;;4.70;1.02;;;10.90;99.90;;;;;;5060225;28;20025;-93
2024/03/16 10:24:01;;;;;;;6.97;1.35;;;10.90;99.90;;;;;;5061419;28;20040;-93
2024/03/16 10:26:30;;;;;;;3.55;1.20;;;10.90;99.90;;;;;;5062820;28;20017;-92
2024/03/16 10:29:01;;;;;;;4.95;1.00;;;10.70;99.90;;;;;;5031236;28;20106;-92
2024/03/16 10:31:29;;;;;;;4.68;1.08;;;10.60;99.90;;;;;;5062083;28;20376;-93
2024/03/16 10:33:59;;;;;;;4.53;0.95;;;10.60;99.90;;;;;;5076791;28;20033;-93
2024/03/16 10:36:26;;;;;;;3.78;0.95;;;10.60;99.90;;;;;;5066810;28;20035;-89
2024/03/16 10:38:56;;;;;;;2.90;0.90;;;10.60;99.90;;;;;;5081092;28;20021;-95
2024/03/16 10:41:22;;;;;;;5.03;1.00;;;10.70;99.90;;;;;;5056998;28;20040;-95
2024/03/16 10:43:50;;;;;;;2.65;0.77;;;10.80;99.90;;;;;;5051694;28;20021;-95
2024/03/16 10:46:15;;;;;;;2.72;0.80;;;10.90;99.90;;;;;;5065215;28;20033;-93
2024/03/16 10:48:44;;;;;;;4.18;1.00;;;11.00;99.90;;;;;;5062645;28;20029;-94
2024/03/16 10:51:23;;;;;;;5.85;1.02;;;11.00;99.90;;;;;;5053514;28;20033;-92
2024/03/16 10:53:51;;;;;;;3.38;1.13;;;11.00;99.90;;;;;;5030477;28;20132;-93
2024/03/16 10:56:17;;;;;;;3.38;0.95;;;11.00;99.90;;;;;;5039401;28;20037;-93
2024/03/16 10:58:46;;;;;;;3.65;0.95;;;11.00;99.90;;;;;;5020121;28;20377;-94
2024/03/16 11:01:19;;;;;;;4.53;0.93;;;11.10;99.90;;;;;;5019850;28;20057;-93
2024/03/16 11:03:45;;;;;;;3.28;0.70;;;11.10;99.90;;;;;;5037715;28;20029;-92
2024/03/16 11:06:24;;;;;;;5.03;1.10;;;11.10;99.90;;;;;;5038630;28;20030;-94
2024/03/16 11:08:52;;;;;;;5.13;1.08;;;11.20;99.90;;;;;;5039102;28;20033;-94
2024/03/16 11:11:28;;;;;;;3.78;1.02;;;11.20;99.90;;;;;;5048890;28;20492;-86
2024/03/16 11:16:27;;;;;;;4.15;0.73;;;11.40;99.90;;;;;;5128564;22;20053;-93
2024/03/16 11:18:58;;;;;;;5.82;1.27;;;11.40;99.90;;;;;;5042915;28;20043;-93
2024/03/16 11:21:26;;;;;;;3.92;1.00;;;11.50;99.90;;;;;;5073616;28;20029;-94
2024/03/16 11:23:53;;;;;;;2.90;0.80;;;11.50;99.90;;;;;;5074685;28;20052;-94
2024/03/16 11:26:29;;;;;;;3.45;0.95;;;11.50;99.90;;;;;;5044807;28;20020;-89
2024/03/16 11:29:14;;;;;;;5.10;1.15;;;11.50;99.90;;;;;;5035597;28;20028;-93
2024/03/16 11:31:41;;;;;;;3.95;0.90;;;11.50;99.90;;;;;;5027522;28;20033;-93
2024/03/16 11:34:15;;;;;;;6.70;1.40;;;11.40;99.90;;;;;;5029487;28;20025;-92
2024/03/16 11:36:53;;;;;;;;;;;;;;;;;;;;;
2024/03/16 11:39:29;;;;;;;3.88;1.10;;;11.30;99.90;;;;;;5048794;28;20056;-94
2024/03/16 11:41:56;;;;;;;3.60;1.05;;;11.30;99.90;;;;;;5043810;28;19997;-94
2024/03/16 11:44:22;;;;;;;3.47;1.08;;;11.30;99.90;;;;;;5051127;28;20029;-89
2024/03/16 11:46:49;;;;;;;7.13;1.20;;;11.30;99.90;;;;;;5008830;28;20029;-89
2024/03/16 11:49:16;;;;;;;3.95;1.25;;;11.40;99.90;;;;;;5032522;28;20052;-89
2024/03/16 11:51:54;;;;;;;4.78;1.17;;;11.40;99.90;;;;;;5032314;28;20506;-88
2024/03/16 11:54:21;;;;;;;4.57;1.30;;;11.50;99.90;;;;;;5029876;28;20025;-87
2024/03/16 11:56:47;;;;;;;7.40;1.25;;;11.50;99.90;;;;;;5051615;28;20032;-88
2024/03/16 11:59:20;;;;;;;6.28;1.35;;;11.60;99.90;;;;;;5010244;28;20032;-87
2024/03/16 12:01:49;;;;;;;4.15;1.00;;;11.60;99.90;;;;;;5042764;28;20457;-87
2024/03/16 12:04:17;;;;;;;5.90;1.30;;;11.70;99.90;;;;;;5036816;28;20109;-87
2024/03/16 12:06:45;;;;;;;6.90;1.45;;;11.70;99.90;;;;;;5054849;28;19997;-86
2024/03/16 12:09:15;;;;;;;4.88;1.45;;;11.70;99.90;;;;;;5051353;28;20068;-88
2024/03/16 12:11:48;;;;;;;5.22;1.10;;;11.70;99.90;;;;;;5054294;28;20006;-87
2024/03/16 12:14:18;;;;;;;4.00;1.40;;;11.60;99.90;;;;;;5059005;28;20052;-89
2024/03/16 12:16:47;;;;;;;3.42;1.08;;;11.60;99.90;;;;;;5068071;28;20060;-87
2024/03/16 12:19:13;;;;;;;5.78;1.13;;;11.70;99.90;;;;;;5039596;28;20025;-88
2024/03/16 12:21:46;;;;;;;2.40;1.00;;;11.80;99.90;;;;;;5027508;28;20087;-87
2024/03/16 12:24:15;;;;;;;4.57;1.00;;;11.80;99.90;;;;;;5027491;28;20453;-88
2024/03/16 12:26:43;;;;;;;3.95;1.23;;;11.80;99.80;;;;;;5036716;28;20460;-88
2024/03/16 12:29:17;;;;;;;3.15;1.10;;;11.90;99.80;;;;;;5022815;28;20018;-89
2024/03/16 12:31:55;;;;;;;3.45;1.60;;;11.90;99.70;;;;;;5032361;28;20045;-88
2024/03/16 12:34:23;;;;;;;2.88;0.85;;;12.00;99.40;;;;;;5037494;28;20024;-88
2024/03/16 12:36:49;;;;;;;3.63;0.80;;;12.00;99.00;;;;;;5038059;28;20519;-90
2024/03/16 12:39:15;;;;;;;3.22;1.10;;;11.90;99.10;;;;;;5037008;28;20032;-90
2024/03/16 12:41:41;;;;;;;3.85;1.20;;;11.90;99.20;;;;;;5021169;28;20025;-90
2024/03/16 12:44:10;;;;;;;4.85;1.00;;;11.90;98.80;;;;;;5037712;28;20166;-90
2024/03/16 12:46:36;;;;;;;3.92;0.80;;;11.90;99.00;;;;;;5038850;28;20033;-90
2024/03/16 12:49:02;;;;;;;4.07;1.13;;;12.00;99.30;;;;;;5024470;28;20021;-90
2024/03/16 12:51:29;;;;;;;3.75;0.90;;;12.10;99.40;;;;;;5018628;28;20045;-91
2024/03/16 12:53:55;;;;;;;4.93;1.30;;;12.10;99.60;;;;;;5041930;28;20017;-89